createdAt,value
2022-10-12T00:01:11.942Z,12.62
2022-10-12T00:03:41.012Z,12.45
2022-10-12T00:06:16.200Z,12.40
2022-10-12T00:08:45.297Z,12.33
2022-10-12T00:11:18.529Z,12.32
2022-10-12T00:13:46.989Z,12.35
2022-10-12T00:16:16.663Z,12.33
2022-10-12T00:18:44.279Z,12.25
2022-10-12T00:21:16.875Z,12.27
2022-10-12T00:23:45.960Z,12.23
2022-10-12T00:26:20.777Z,12.23
2022-10-12T00:28:54.526Z,12.23
2022-10-12T00:31:22.260Z,12.22
2022-10-12T00:33:49.739Z,12.21
2022-10-12T00:36:22.286Z,12.24
2022-10-12T00:38:52.422Z,12.35
2022-10-12T00:41:23.813Z,12.39
2022-10-12T00:43:57.622Z,12.47
2022-10-12T00:46:46.123Z,12.52
2022-10-12T00:49:23.681Z,12.52
2022-10-12T00:51:57.784Z,12.36
2022-10-12T00:54:31.387Z,12.35
2022-10-12T00:57:01.580Z,12.20
2022-10-12T00:59:34.320Z,12.30
2022-10-12T01:02:02.900Z,12.16
2022-10-12T01:04:32.979Z,12.09
2022-10-12T01:07:01.412Z,12.06
2022-10-12T01:09:30.005Z,12.04
2022-10-12T01:11:58.981Z,11.99
2022-10-12T01:14:26.652Z,12.00
2022-10-12T01:17:21.237Z,11.90
2022-10-12T01:20:17.210Z,11.82
2022-10-12T01:23:06.093Z,11.77
2022-10-12T01:25:48.932Z,11.69
2022-10-12T01:28:59.255Z,11.65
2022-10-12T01:31:40.981Z,11.54
2022-10-12T01:34:24.313Z,11.46
2022-10-12T01:37:22.242Z,11.40
2022-10-12T01:39:54.841Z,11.32
2022-10-12T01:42:28.519Z,11.17
2022-10-12T01:45:09.165Z,11.05
2022-10-12T01:47:40.540Z,10.88
2022-10-12T01:50:12.329Z,10.79
2022-10-12T01:52:57.914Z,10.76
2022-10-12T01:55:44.321Z,10.72
2022-10-12T01:58:51.539Z,10.64
2022-10-12T02:01:46.407Z,10.69
2022-10-12T02:04:33.101Z,10.57
2022-10-12T02:07:09.961Z,10.53
2022-10-12T02:09:39.983Z,10.47
2022-10-12T02:12:19.031Z,10.48
2022-10-12T02:14:56.099Z,10.53
2022-10-12T02:17:24.080Z,10.53
2022-10-12T02:20:00.493Z,10.54
2022-10-12T02:22:35.802Z,10.51
2022-10-12T02:25:09.022Z,10.50
2022-10-12T02:27:41.989Z,10.47
2022-10-12T02:30:13.630Z,10.45
2022-10-12T02:33:08.506Z,10.47
2022-10-12T02:35:44.062Z,10.47
2022-10-12T02:38:38.539Z,10.39
2022-10-12T02:41:12.923Z,10.41
2022-10-12T02:43:53.255Z,10.40
2022-10-12T02:46:23.457Z,10.38
2022-10-12T02:48:54.855Z,10.40
2022-10-12T02:51:24.545Z,10.32
2022-10-12T02:53:53.347Z,10.32
2022-10-12T02:56:21.492Z,10.32
2022-10-12T02:58:49.382Z,10.34
2022-10-12T03:01:18.649Z,10.39
2022-10-12T03:03:47.928Z,10.42
2022-10-12T03:06:15.990Z,10.45
2022-10-12T03:08:43.351Z,10.47
2022-10-12T03:11:14.685Z,10.43
2022-10-12T03:13:42.071Z,10.49
2022-10-12T03:16:11.638Z,10.55
2022-10-12T03:18:40.325Z,10.54
2022-10-12T03:21:10.858Z,10.52
2022-10-12T03:23:38.455Z,10.58
2022-10-12T03:26:06.222Z,10.59
2022-10-12T03:28:33.743Z,10.60
2022-10-12T03:31:01.380Z,10.62
2022-10-12T03:33:29.753Z,10.68
2022-10-12T03:35:57.715Z,10.65
2022-10-12T03:38:27.664Z,10.64
2022-10-12T03:40:55.485Z,10.77
2022-10-12T03:43:23.336Z,10.69
2022-10-12T03:45:50.815Z,10.74
2022-10-12T03:48:19.824Z,10.95
2022-10-12T03:50:51.461Z,10.89
2022-10-12T03:53:20.700Z,10.95
2022-10-12T03:55:48.079Z,10.96
2022-10-12T03:58:15.951Z,11.04
2022-10-12T04:00:43.580Z,10.94
2022-10-12T04:03:12.919Z,10.96
2022-10-12T04:05:41.007Z,10.89
2022-10-12T04:08:08.469Z,10.90
2022-10-12T04:10:35.674Z,10.92
2022-10-12T04:13:03.950Z,10.78
2022-10-12T04:15:33.722Z,10.89
2022-10-12T04:18:03.217Z,10.69
2022-10-12T04:20:30.647Z,10.79
2022-10-12T04:22:58.135Z,10.61
2022-10-12T04:25:29.959Z,10.53
2022-10-12T04:27:58.977Z,10.46
2022-10-12T04:30:28.108Z,10.40
2022-10-12T04:32:56.624Z,10.38
2022-10-12T04:35:24.540Z,10.37
2022-10-12T04:37:53.121Z,10.34
2022-10-12T04:40:21.143Z,10.32
2022-10-12T04:42:49.326Z,10.32
2022-10-12T04:45:16.677Z,10.23
2022-10-12T04:47:43.956Z,10.11
2022-10-12T04:50:12.278Z,10.03
2022-10-12T04:52:39.624Z,10.06
2022-10-12T04:55:08.313Z,10.16
2022-10-12T04:57:37.152Z,10.44
2022-10-12T05:00:06.227Z,10.46
2022-10-12T05:02:34.228Z,10.53
2022-10-12T05:05:01.821Z,10.51
2022-10-12T05:07:30.151Z,10.57
2022-10-12T05:09:57.521Z,10.61
2022-10-12T05:12:26.340Z,10.58
2022-10-12T05:14:53.724Z,10.38
2022-10-12T05:17:21.561Z,10.48
2022-10-12T05:19:51.206Z,10.57
2022-10-12T05:22:18.889Z,10.57
2022-10-12T05:24:48.975Z,10.23
2022-10-12T05:27:21.115Z,10.13
2022-10-12T05:29:48.673Z,10.13
2022-10-12T05:32:17.416Z,10.06
2022-10-12T05:34:44.821Z,10.03
2022-10-12T05:37:12.699Z,10.02
2022-10-12T05:39:39.976Z,10.04
2022-10-12T05:42:08.218Z,10.04
2022-10-12T05:44:35.668Z,9.97
2022-10-12T05:47:03.763Z,9.92
2022-10-12T05:49:31.133Z,9.89
2022-10-12T05:51:58.427Z,9.83
2022-10-12T05:54:25.971Z,9.81
2022-10-12T05:56:54.796Z,9.79
2022-10-12T05:59:22.529Z,9.75
2022-10-12T06:01:50.507Z,9.74
2022-10-12T06:04:18.418Z,9.74
2022-10-12T06:06:47.530Z,9.74
2022-10-12T06:09:14.880Z,9.76
2022-10-12T06:11:44.532Z,9.79
2022-10-12T06:14:12.758Z,9.75
2022-10-12T06:16:40.290Z,9.76
2022-10-12T06:19:11.066Z,9.80
2022-10-12T06:21:39.059Z,9.84
2022-10-12T06:24:06.450Z,9.92
2022-10-12T06:26:34.274Z,9.90
2022-10-12T06:29:02.107Z,9.92
2022-10-12T06:31:30.677Z,10.00
2022-10-12T06:33:59.875Z,10.06
2022-10-12T06:36:27.449Z,10.23
2022-10-12T06:38:55.219Z,10.51
2022-10-12T06:41:23.877Z,10.79
2022-10-12T06:43:52.359Z,10.96
2022-10-12T06:46:20.291Z,11.05
2022-10-12T06:48:47.682Z,11.01
2022-10-12T06:51:14.946Z,10.92
2022-10-12T06:53:42.092Z,10.82
2022-10-12T06:56:10.893Z,10.78
2022-10-12T06:58:39.614Z,10.72
2022-10-12T07:01:10.842Z,10.73
2022-10-12T07:05:14.700Z,10.71
2022-10-12T07:07:43.171Z,10.74
2022-10-12T07:10:10.681Z,10.89
2022-10-12T07:12:39.776Z,10.92
2022-10-12T07:15:08.115Z,11.02
2022-10-12T07:17:35.819Z,11.37
2022-10-12T07:20:08.979Z,11.99
2022-10-12T07:22:36.423Z,12.89
2022-10-12T07:25:03.826Z,13.88
2022-10-12T07:27:32.752Z,14.43
2022-10-12T07:30:00.615Z,14.75
2022-10-12T07:32:28.982Z,15.19
2022-10-12T07:34:56.406Z,15.79
2022-10-12T07:37:23.875Z,16.53
2022-10-12T07:39:57.115Z,17.26
2022-10-12T07:42:25.966Z,17.86
2022-10-12T07:44:54.112Z,18.15
2022-10-12T07:47:25.513Z,18.19
2022-10-12T07:49:52.915Z,18.35
2022-10-12T07:52:20.290Z,18.59
2022-10-12T07:54:47.790Z,18.57
2022-10-12T07:57:15.902Z,18.58
2022-10-12T07:59:44.265Z,18.40
2022-10-12T08:02:12.496Z,18.66
2022-10-12T08:04:41.272Z,19.11
2022-10-12T08:07:08.827Z,19.60
2022-10-12T08:09:37.571Z,19.92
2022-10-12T08:12:05.280Z,20.15
2022-10-12T08:14:33.095Z,20.49
2022-10-12T08:17:00.444Z,21.03
2022-10-12T08:19:33.019Z,21.23
2022-10-12T08:22:03.435Z,21.12
2022-10-12T08:24:31.338Z,20.69
2022-10-12T08:27:01.382Z,20.51
2022-10-12T08:29:29.082Z,20.73
2022-10-12T08:31:57.032Z,21.02
2022-10-12T08:34:25.437Z,21.27
2022-10-12T08:36:53.157Z,21.54
2022-10-12T08:39:21.192Z,21.80
2022-10-12T08:42:12.207Z,22.04
2022-10-12T08:45:13.256Z,22.21
2022-10-12T08:47:45.782Z,22.31
2022-10-12T08:50:48.805Z,22.42
2022-10-12T08:53:25.802Z,22.18
2022-10-12T08:55:54.321Z,22.18
2022-10-12T08:58:32.300Z,22.33
2022-10-12T09:01:29.673Z,22.28
2022-10-12T09:04:22.720Z,22.23
2022-10-12T09:07:08.420Z,22.23
2022-10-12T09:09:56.062Z,22.26
2022-10-12T09:12:51.319Z,22.28
2022-10-12T09:15:25.476Z,22.31
2022-10-12T09:17:56.122Z,22.21
2022-10-12T09:20:35.319Z,22.11
2022-10-12T09:23:17.811Z,22.14
2022-10-12T09:25:46.549Z,22.32
2022-10-12T09:28:21.711Z,22.59
2022-10-12T09:31:18.305Z,22.75
2022-10-12T09:34:00.102Z,22.81
2022-10-12T09:36:48.526Z,22.88
2022-10-12T09:39:23.500Z,22.99
2022-10-12T09:41:54.886Z,23.02
2022-10-12T09:44:32.470Z,23.05
2022-10-12T09:47:02.543Z,23.04
2022-10-12T09:49:47.247Z,22.97
2022-10-12T09:52:18.463Z,22.97
2022-10-12T09:54:54.187Z,23.20
2022-10-12T09:57:27.242Z,23.43
2022-10-12T09:59:56.435Z,23.58
2022-10-12T10:02:26.511Z,23.74
2022-10-12T10:05:24.517Z,23.89
2022-10-12T10:07:54.817Z,24.08
2022-10-12T10:10:30.086Z,24.11
2022-10-12T10:13:03.052Z,24.05
2022-10-12T10:15:44.941Z,24.00
2022-10-12T10:18:48.172Z,23.87
2022-10-12T10:21:27.177Z,23.73
2022-10-12T10:24:12.469Z,23.77
2022-10-12T10:27:05.326Z,23.83
2022-10-12T10:29:43.247Z,23.87
2022-10-12T10:32:27.404Z,23.81
2022-10-12T10:35:17.750Z,23.84
2022-10-12T10:37:48.383Z,23.96
2022-10-12T10:40:23.320Z,24.23
2022-10-12T10:42:57.973Z,24.37
2022-10-12T10:45:29.536Z,24.45
2022-10-12T10:48:01.639Z,24.41
2022-10-12T10:50:36.667Z,24.16
2022-10-12T10:53:08.118Z,23.74
2022-10-12T10:56:01.411Z,23.31
2022-10-12T10:58:39.952Z,23.11
2022-10-12T11:01:29.501Z,23.03
2022-10-12T11:04:04.488Z,22.99
2022-10-12T11:06:45.995Z,23.04
2022-10-12T11:09:26.533Z,23.17
2022-10-12T11:12:06.511Z,23.26
2022-10-12T11:14:44.094Z,23.29
2022-10-12T11:17:36.114Z,23.22
2022-10-12T11:20:35.159Z,23.08
2022-10-12T11:23:18.919Z,23.11
2022-10-12T11:26:02.918Z,23.20
2022-10-12T11:28:33.797Z,23.38
2022-10-12T11:31:02.735Z,23.46
2022-10-12T11:33:38.643Z,23.43
2022-10-12T11:36:19.585Z,23.42
2022-10-12T11:38:59.433Z,23.46
2022-10-12T11:41:44.970Z,23.36
2022-10-12T11:44:32.342Z,23.33
2022-10-12T11:47:12.806Z,23.44
2022-10-12T11:49:58.159Z,23.40
2022-10-12T11:52:36.305Z,23.48
2022-10-12T11:55:28.741Z,23.69
2022-10-12T11:58:08.724Z,23.76
2022-10-12T12:00:40.531Z,23.91
2022-10-12T12:03:43.911Z,23.89
2022-10-12T12:06:29.645Z,23.68
2022-10-12T12:09:03.714Z,23.53
2022-10-12T12:11:33.942Z,23.33
2022-10-12T12:14:26.215Z,23.08
2022-10-12T12:17:18.912Z,22.82
2022-10-12T12:19:54.932Z,22.62
2022-10-12T12:22:26.611Z,22.60
2022-10-12T12:25:27.695Z,22.85
2022-10-12T12:27:57.524Z,22.86
2022-10-12T12:30:29.003Z,22.86
2022-10-12T12:33:04.756Z,22.77
2022-10-12T12:35:50.327Z,22.65
2022-10-12T12:38:20.933Z,22.39
2022-10-12T12:41:19.202Z,22.16
2022-10-12T12:44:04.242Z,21.80
2022-10-12T12:46:56.580Z,21.71
2022-10-12T12:49:47.783Z,21.60
2022-10-12T12:52:24.521Z,21.55
2022-10-12T12:54:56.139Z,21.69
2022-10-12T12:57:26.489Z,21.81
2022-10-12T13:00:16.118Z,21.89
2022-10-12T13:03:07.990Z,21.75
2022-10-12T13:06:03.544Z,21.76
2022-10-12T13:09:02.504Z,21.83
2022-10-12T13:11:31.391Z,21.88
2022-10-12T13:13:59.894Z,21.91
2022-10-12T13:17:30.548Z,21.96
2022-10-12T13:19:37.426Z,21.90
2022-10-12T13:22:15.241Z,21.89
2022-10-12T13:24:50.408Z,21.68
2022-10-12T13:27:34.478Z,21.55
2022-10-12T13:30:25.498Z,21.38
2022-10-12T13:32:57.940Z,21.34
2022-10-12T13:35:34.260Z,21.35
2022-10-12T13:38:21.863Z,21.42
2022-10-12T13:40:54.195Z,21.46
2022-10-12T13:43:54.167Z,21.56
2022-10-12T13:47:05.384Z,21.57
2022-10-12T13:49:42.793Z,21.56
2022-10-12T13:52:13.898Z,21.55
2022-10-12T13:54:44.034Z,21.56
2022-10-12T13:57:50.560Z,21.55
2022-10-12T14:00:22.761Z,21.53
2022-10-12T14:03:02.872Z,21.61
2022-10-12T14:05:33.735Z,21.63
2022-10-12T14:08:15.856Z,21.63
2022-10-12T14:10:46.803Z,21.64
2022-10-12T14:13:20.934Z,21.65
2022-10-12T14:15:49.432Z,21.66
2022-10-12T14:18:43.418Z,21.56
2022-10-12T14:21:18.483Z,21.49
2022-10-12T14:24:00.332Z,21.44
2022-10-12T14:26:35.219Z,21.43
2022-10-12T14:29:45.383Z,21.45
2022-10-12T14:32:12.984Z,21.50
2022-10-12T14:34:46.565Z,21.46
2022-10-12T14:37:16.627Z,21.44
2022-10-12T14:39:46.400Z,21.39
2022-10-12T14:42:29.788Z,21.28
2022-10-12T14:44:59.058Z,21.22
2022-10-12T14:47:41.775Z,21.21
2022-10-12T14:50:18.095Z,21.25
2022-10-12T14:52:48.594Z,21.30
2022-10-12T14:55:19.346Z,21.32
2022-10-12T14:57:48.150Z,21.29
2022-10-12T15:00:22.492Z,21.27
2022-10-12T15:02:51.598Z,21.22
2022-10-12T15:05:22.489Z,21.16
2022-10-12T15:07:52.931Z,21.09
2022-10-12T15:10:22.960Z,21.02
2022-10-12T15:12:51.278Z,20.92
2022-10-12T15:15:42.425Z,20.88
2022-10-12T15:18:10.405Z,20.81
2022-10-12T15:20:38.898Z,20.74
2022-10-12T15:23:07.981Z,20.68
2022-10-12T15:25:35.255Z,20.63
2022-10-12T15:28:05.248Z,20.58
2022-10-12T15:30:34.292Z,20.55
2022-10-12T15:33:02.059Z,20.59
2022-10-12T15:35:34.565Z,20.54
2022-10-12T15:38:02.118Z,20.54
2022-10-12T15:40:31.711Z,20.61
2022-10-12T15:43:00.746Z,20.58
2022-10-12T15:45:32.892Z,20.45
2022-10-12T15:48:01.704Z,20.39
2022-10-12T15:50:34.474Z,20.42
2022-10-12T15:53:04.065Z,20.38
2022-10-12T15:55:31.974Z,20.34
2022-10-12T15:58:00.432Z,20.31
2022-10-12T16:00:29.664Z,20.34
2022-10-12T16:02:59.885Z,20.30
2022-10-12T16:05:36.986Z,20.19
2022-10-12T16:08:06.089Z,20.23
2022-10-12T16:10:37.154Z,20.21
2022-10-12T16:13:07.092Z,20.13
2022-10-12T16:15:36.723Z,20.11
2022-10-12T16:18:05.848Z,20.05
2022-10-12T16:20:37.592Z,19.87
2022-10-12T16:23:14.379Z,19.72
2022-10-12T16:25:43.754Z,19.70
2022-10-12T16:28:12.734Z,19.62
2022-10-12T16:30:42.358Z,19.51
2022-10-12T16:33:11.311Z,19.46
2022-10-12T16:35:42.060Z,19.41
2022-10-12T16:38:09.948Z,19.37
2022-10-12T16:40:43.777Z,19.39
2022-10-12T16:43:12.423Z,19.22
2022-10-12T16:45:39.818Z,19.13
2022-10-12T16:48:07.732Z,19.03
2022-10-12T16:50:39.977Z,19.00
2022-10-12T16:53:08.757Z,18.92
2022-10-12T16:55:38.975Z,18.84
2022-10-12T16:58:08.804Z,18.85
2022-10-12T17:00:36.889Z,18.75
2022-10-12T17:03:05.616Z,18.63
2022-10-12T17:05:32.989Z,18.57
2022-10-12T17:08:02.328Z,18.49
2022-10-12T17:10:29.837Z,18.48
2022-10-12T17:12:57.666Z,18.37
2022-10-12T17:15:25.079Z,18.28
2022-10-12T17:17:54.122Z,18.26
2022-10-12T17:20:21.715Z,18.18
2022-10-12T17:22:49.933Z,18.12
2022-10-12T17:25:17.775Z,18.02
2022-10-12T17:27:47.500Z,17.88
2022-10-12T17:30:16.123Z,17.81
2022-10-12T17:32:43.954Z,17.71
2022-10-12T17:35:11.915Z,17.66
2022-10-12T17:37:42.801Z,17.53
2022-10-12T17:40:11.582Z,17.56
2022-10-12T17:42:39.436Z,17.50
2022-10-12T17:45:07.804Z,17.50
2022-10-12T17:47:35.313Z,17.64
2022-10-12T17:50:04.702Z,17.61
2022-10-12T17:52:37.912Z,17.62
2022-10-12T17:55:09.420Z,17.50
2022-10-12T17:57:43.419Z,17.39
2022-10-12T18:00:11.787Z,17.42
2022-10-12T18:02:40.745Z,17.38
2022-10-12T18:05:10.082Z,17.24
2022-10-12T18:07:40.707Z,17.14
2022-10-12T18:10:09.062Z,17.02
2022-10-12T18:12:36.901Z,17.01
2022-10-12T18:15:07.461Z,16.83
2022-10-12T18:17:35.598Z,16.88
2022-10-12T18:20:04.978Z,16.91
2022-10-12T18:22:33.568Z,16.95
2022-10-12T18:25:00.923Z,16.77
2022-10-12T18:27:29.287Z,16.72
2022-10-12T18:29:56.654Z,16.71
2022-10-12T18:32:26.480Z,16.80
2022-10-12T18:34:55.128Z,16.82
2022-10-12T18:37:22.553Z,16.72
2022-10-12T18:39:49.858Z,16.70
2022-10-12T18:42:17.687Z,16.56
2022-10-12T18:44:45.661Z,16.44
2022-10-12T18:47:13.106Z,16.39
2022-10-12T18:49:40.665Z,16.34
2022-10-12T18:52:08.122Z,16.39
2022-10-12T18:54:35.524Z,16.38
2022-10-12T18:57:04.261Z,16.45
2022-10-12T18:59:32.311Z,16.39
2022-10-12T19:02:01.568Z,16.41
2022-10-12T19:04:28.953Z,16.30
2022-10-12T19:06:57.995Z,16.26
2022-10-12T19:09:25.464Z,16.16
2022-10-12T19:11:55.899Z,16.18
2022-10-12T19:14:24.863Z,16.07
2022-10-12T19:16:52.540Z,16.16
2022-10-12T19:19:21.684Z,16.09
2022-10-12T19:21:51.322Z,16.11
2022-10-12T19:24:20.842Z,16.03
2022-10-12T19:26:48.751Z,16.02
2022-10-12T19:29:17.236Z,16.02
2022-10-12T19:31:48.350Z,16.07
2022-10-12T19:34:18.327Z,16.05
2022-10-12T19:36:46.201Z,16.08
2022-10-12T19:39:16.957Z,16.04
2022-10-12T19:41:48.885Z,16.13
2022-10-12T19:44:20.795Z,16.07
2022-10-12T19:46:49.253Z,16.00
2022-10-12T19:49:18.135Z,16.04
2022-10-12T19:51:45.710Z,15.92
2022-10-12T19:54:14.603Z,15.89
2022-10-12T19:56:42.353Z,15.82
2022-10-12T19:59:09.898Z,15.91
2022-10-12T20:01:39.450Z,15.89
2022-10-12T20:04:10.122Z,15.88
2022-10-12T20:06:38.659Z,15.77
2022-10-12T20:09:10.043Z,15.69
2022-10-12T20:11:38.826Z,15.63
2022-10-12T20:14:07.204Z,15.62
2022-10-12T20:16:36.995Z,15.49
2022-10-12T20:19:05.694Z,15.57
2022-10-12T20:21:33.241Z,15.66
2022-10-12T20:24:02.680Z,15.54
2022-10-12T20:26:31.044Z,15.53
2022-10-12T20:28:58.556Z,15.51
2022-10-12T20:31:27.667Z,15.47
2022-10-12T20:33:56.676Z,15.38
2022-10-12T20:36:28.604Z,15.30
2022-10-12T20:38:58.068Z,15.28
2022-10-12T20:41:26.404Z,15.37
2022-10-12T20:43:56.704Z,15.36
2022-10-12T20:46:27.297Z,15.29
2022-10-12T20:48:59.465Z,15.23
2022-10-12T20:51:32.340Z,15.14
2022-10-12T20:54:02.491Z,15.11
2022-10-12T20:56:31.691Z,15.06
2022-10-12T20:59:00.654Z,15.13
2022-10-12T21:01:29.498Z,15.07
2022-10-12T21:03:57.333Z,15.00
2022-10-12T21:06:25.153Z,15.00
2022-10-12T21:08:56.280Z,15.12
2022-10-12T21:11:24.898Z,15.16
2022-10-12T21:13:52.432Z,15.04
2022-10-12T21:16:20.672Z,15.05
2022-10-12T21:18:48.284Z,15.15
2022-10-12T21:21:18.839Z,15.03
2022-10-12T21:23:58.269Z,15.07
2022-10-12T21:26:30.184Z,14.98
2022-10-12T21:29:00.797Z,14.90
2022-10-12T21:31:32.297Z,14.87
2022-10-12T21:34:04.774Z,14.88
2022-10-12T21:36:35.619Z,14.92
2022-10-12T21:39:08.119Z,15.04
2022-10-12T21:41:36.978Z,14.98
2022-10-12T21:44:06.728Z,14.93
2022-10-12T21:46:35.626Z,14.91
2022-10-12T21:49:08.018Z,14.80
2022-10-12T21:51:37.743Z,14.79
2022-10-12T21:54:06.974Z,14.82
2022-10-12T21:56:37.124Z,14.69
2022-10-12T21:59:05.817Z,14.67
2022-10-12T22:01:38.608Z,14.68
2022-10-12T22:04:13.581Z,14.83
2022-10-12T22:06:44.234Z,14.88
2022-10-12T22:09:17.000Z,14.86
2022-10-12T22:11:46.714Z,14.72
2022-10-12T22:14:16.235Z,14.76
2022-10-12T22:16:45.810Z,14.63
2022-10-12T22:19:19.044Z,14.65
2022-10-12T22:21:52.598Z,14.55
2022-10-12T22:24:27.779Z,14.64
2022-10-12T22:26:55.975Z,14.51
2022-10-12T22:29:23.681Z,14.51
2022-10-12T22:31:53.089Z,14.58
2022-10-12T22:34:20.531Z,14.48
2022-10-12T22:36:49.043Z,14.46
2022-10-12T22:39:25.541Z,14.41
2022-10-12T22:41:54.551Z,14.60
2022-10-12T22:44:22.312Z,14.57
2022-10-12T22:46:54.779Z,14.44
2022-10-12T22:49:23.415Z,14.51
2022-10-12T22:51:50.851Z,14.50
2022-10-12T22:54:20.921Z,14.41
2022-10-12T22:56:51.559Z,14.46
2022-10-12T22:59:20.254Z,14.30
2022-10-12T23:01:48.073Z,14.39
2022-10-12T23:04:16.299Z,14.32
2022-10-12T23:06:43.738Z,14.27
2022-10-12T23:09:13.134Z,14.25
2022-10-12T23:11:41.020Z,14.26
2022-10-12T23:14:11.004Z,14.37
2022-10-12T23:16:38.816Z,14.24
2022-10-12T23:19:06.305Z,14.17
2022-10-12T23:21:34.687Z,14.16
2022-10-12T23:24:05.705Z,14.19
2022-10-12T23:26:33.935Z,14.25
2022-10-12T23:29:02.392Z,14.22
2022-10-12T23:31:30.763Z,14.23
2022-10-12T23:33:59.933Z,14.19
2022-10-12T23:36:28.093Z,14.21
2022-10-12T23:38:56.005Z,14.22
2022-10-12T23:41:24.339Z,14.16
2022-10-12T23:43:51.720Z,14.23
2022-10-12T23:46:19.598Z,14.24
2022-10-12T23:48:46.933Z,14.21
2022-10-12T23:51:18.249Z,14.18
2022-10-12T23:53:46.898Z,14.14
2022-10-12T23:56:14.840Z,14.13
2022-10-12T23:58:42.365Z,14.26
